Time;durP1;ratioP1;P1;durP2;ratioP2;P2;SDS_P1;SDS_P2;PMS_P1;PMS_P2;Temp;Humidity;BMP_temperature;BMP_pressure;BME280_temperature;BME280_humidity;BME280_pressure;Samples;Min_cycle;Max_cycle;Signal;HPM_P1;HPM_P2
2022/01/24 00:01:39;;;;;;;48.70;26.77;;;;;;;-4.86;91.23;100601.02;1701402;84;21297;-78
2022/01/24 00:04:48;;;;;;;53.85;26.40;;;;;;;-4.86;91.52;100583.67;1699890;83;21182;-78
2022/01/24 00:07:52;;;;;;;61.00;28.45;;;;;;;-4.85;91.71;100574.25;1701462;84;21277;-84
2022/01/24 00:11:05;;;;;;;53.68;28.87;;;;;;;-4.86;92.01;100577.00;1701388;84;21301;-84
2022/01/24 00:14:37;;;;;;;53.63;25.92;;;;;;;-4.85;92.36;100582.72;1701385;84;21296;-84
2022/01/24 00:17:18;;;;;;;53.33;27.48;;;;;;;-4.83;92.65;100576.86;1699921;84;21263;-78
2022/01/24 00:26:57;;;;;;;54.93;28.07;;;;;;;-4.77;92.92;100579.23;1701379;84;21663;-83
2022/01/24 00:30:03;;;;;;;48.83;25.48;;;;;;;-4.78;92.96;100571.70;1701368;84;21811;-78
2022/01/24 00:33:10;;;;;;;48.75;25.72;;;;;;;-4.78;92.85;100559.69;1701495;84;21257;-80
2022/01/24 00:36:15;;;;;;;49.95;28.25;;;;;;;-4.79;92.87;100575.78;1701393;84;21308;-78
2022/01/24 00:39:20;;;;;;;57.50;29.80;;;;;;;-4.79;92.85;100553.10;1701414;84;21950;-83
2022/01/24 00:42:33;;;;;;;52.15;28.00;;;;;;;-4.81;92.86;100551.81;1701431;84;21543;-84
2022/01/24 00:55:32;;;;;;;50.00;27.67;;;;;;;-4.78;93.02;100545.48;1704402;84;21815;-77
2022/01/24 00:58:37;;;;;;;44.18;24.60;;;;;;;-4.79;92.96;100554.44;1705258;84;21182;-77
2022/01/24 01:01:41;;;;;;;49.48;27.80;;;;;;;-4.80;92.87;100548.67;1705250;84;21233;-77
2022/01/24 01:18:38;;;;;;;48.05;25.12;;;;;;;-4.72;92.29;100548.71;1704893;84;21532;-79
2022/01/24 01:21:16;;;;;;;39.65;23.38;;;;;;;-4.70;92.18;100529.97;1691382;84;21309;-77
2022/01/24 01:24:24;;;;;;;47.13;24.35;;;;;;;-4.67;92.04;100550.69;1704651;84;21870;-77
2022/01/24 01:27:37;;;;;;;47.35;25.90;;;;;;;-4.70;91.84;100541.52;1704659;84;21238;-83
2022/01/24 01:30:42;;;;;;;51.98;25.50;;;;;;;-4.70;91.83;100561.53;1705761;84;21822;-77
2022/01/24 01:34:05;;;;;;;45.05;23.47;;;;;;;-4.70;91.78;100535.31;1704418;84;21218;-84
2022/01/24 01:57:06;;;;;;;43.33;24.55;;;;;;;-4.66;90.98;100552.88;1705885;84;21308;-77
2022/01/24 02:00:13;;;;;;;43.17;22.85;;;;;;;-4.67;90.87;100557.83;1693421;84;21301;-78
2022/01/24 02:03:19;;;;;;;38.00;20.60;;;;;;;-4.66;90.91;100543.54;1705866;84;21206;-77
2022/01/24 02:06:25;;;;;;;42.98;24.32;;;;;;;-4.70;90.72;100536.65;1705812;83;21214;-78
2022/01/24 02:09:42;;;;;;;48.00;24.12;;;;;;;-4.71;90.75;100553.58;1705757;84;21807;-83
2022/01/24 02:12:48;;;;;;;46.25;21.68;;;;;;;-4.71;90.76;100565.59;1695183;84;21786;-78
2022/01/24 02:16:08;;;;;;;36.75;18.80;;;;;;;-4.72;90.64;100546.52;1705628;84;21787;-77
2022/01/24 02:25:32;;;;;;;37.13;19.35;;;;;;;-4.83;90.46;100548.84;1705819;84;21155;-77
2022/01/24 02:31:55;;;;;;;39.48;22.45;;;;;;;-4.85;90.89;100537.36;1704357;84;21210;-79
2022/01/24 02:35:02;;;;;;;30.95;17.17;;;;;;;-4.87;91.02;100532.58;1704735;84;21154;-76
2022/01/24 02:38:19;;;;;;;40.50;21.27;;;;;;;-4.87;90.85;100546.78;1705583;84;21298;-81
2022/01/24 02:51:45;;;;;;;33.58;18.85;;;;;;;-4.82;90.55;100531.89;1700706;84;21238;-77
2022/01/24 02:54:38;;;;;;;37.85;19.23;;;;;;;-4.83;90.54;100585.73;1701170;84;21301;-84
2022/01/24 02:57:45;;;;;;;29.80;17.75;;;;;;;-4.81;90.29;100526.94;1699905;84;21307;-77
2022/01/24 03:00:51;;;;;;;31.48;18.75;;;;;;;-4.79;90.13;100533.95;1701177;84;21314;-77
2022/01/24 03:03:58;;;;;;;44.40;19.65;;;;;;;-4.77;89.90;100527.19;1701320;84;21158;-81
2022/01/24 03:07:04;;;;;;;41.80;20.15;;;;;;;-4.76;89.56;100540.45;1701298;84;21317;-83
2022/01/24 03:10:14;;;;;;;38.08;17.62;;;;;;;-4.76;89.57;100527.11;1700040;84;21178;-77
2022/01/24 03:13:30;;;;;;;30.57;18.32;;;;;;;-4.77;89.51;100531.20;1699894;84;21803;-84
2022/01/24 03:16:26;;;;;;;33.28;17.35;;;;;;;-4.78;89.84;100538.34;1700331;84;21304;-83
2022/01/24 03:19:33;;;;;;;40.12;19.75;;;;;;;-4.79;89.75;100573.12;1700474;84;21293;-76
2022/01/24 03:22:38;;;;;;;35.68;19.57;;;;;;;-4.81;89.73;100537.14;1699897;84;21238;-77
2022/01/24 03:25:43;;;;;;;38.70;19.00;;;;;;;-4.83;89.93;100555.05;1701196;84;21834;-77
2022/01/24 03:28:49;;;;;;;32.17;15.68;;;;;;;-4.83;89.96;100526.16;1701057;84;21296;-77
2022/01/24 03:31:54;;;;;;;29.30;17.35;;;;;;;-4.87;90.18;100565.94;1700049;84;21285;-84
2022/01/24 03:35:00;;;;;;;36.55;18.10;;;;;;;-4.89;90.33;100534.00;1701274;84;21199;-84
2022/01/24 03:38:08;;;;;;;41.28;19.12;;;;;;;-4.90;90.63;100538.44;1701290;84;21368;-83
2022/01/24 03:41:14;;;;;;;36.40;17.80;;;;;;;-4.91;90.76;100543.39;1701083;84;21298;-83
2022/01/24 03:44:20;;;;;;;28.87;17.30;;;;;;;-4.91;90.94;100550.06;1701542;84;21230;-76
2022/01/24 03:47:43;;;;;;;34.98;17.52;;;;;;;-4.94;91.30;100554.23;1701319;84;21333;-75
2022/01/24 03:50:37;;;;;;;29.25;18.48;;;;;;;-4.96;91.56;100559.22;1701772;84;21233;-76
2022/01/24 03:53:41;;;;;;;31.65;17.98;;;;;;;-4.98;91.73;100551.30;1701721;84;21803;-83
2022/01/24 03:56:46;;;;;;;31.93;18.25;;;;;;;-4.98;91.83;100605.99;1701662;84;21744;-76
2022/01/24 03:59:52;;;;;;;30.62;18.07;;;;;;;-4.98;91.79;100573.98;1701631;84;21301;-76
2022/01/24 04:02:59;;;;;;;37.05;19.37;;;;;;;-4.96;91.86;100581.90;1701735;84;21341;-81
2022/01/24 04:06:04;;;;;;;41.40;18.30;;;;;;;-4.93;91.78;100588.44;1701686;84;21321;-76
2022/01/24 04:09:10;;;;;;;33.35;18.15;;;;;;;-4.93;91.47;100595.11;1701695;84;21269;-76
2022/01/24 04:12:24;;;;;;;35.85;18.50;;;;;;;-4.93;91.39;100597.78;1701779;84;21230;-83
2022/01/24 04:18:59;;;;;;;31.15;17.48;;;;;;;-4.93;90.98;100601.31;1701779;84;21285;-82
2022/01/24 04:21:57;;;;;;;32.78;17.23;;;;;;;-4.93;90.82;100610.65;1701678;84;21234;-82
2022/01/24 04:25:04;;;;;;;34.67;16.42;;;;;;;-4.93;90.77;100607.98;1701662;84;21811;-77
2022/01/24 04:28:08;;;;;;;31.23;18.50;;;;;;;-4.93;90.55;100630.66;1701706;84;21799;-76
2022/01/24 04:31:14;;;;;;;27.50;15.43;;;;;;;-4.93;90.33;100632.47;1703611;83;21291;-82
2022/01/24 04:34:19;;;;;;;30.02;15.18;;;;;;;-4.93;90.41;100637.80;1701455;84;21912;-78
2022/01/24 04:37:25;;;;;;;32.55;17.50;;;;;;;-4.91;90.50;100623.91;1705247;83;21319;-83
2022/01/24 04:40:30;;;;;;;30.88;14.83;;;;;;;-4.92;90.97;100627.05;1701351;84;21327;-83
2022/01/24 04:43:51;;;;;;;32.90;17.17;;;;;;;-4.91;91.51;100632.77;1701305;84;21141;-83
2022/01/24 04:46:51;;;;;;;28.25;16.67;;;;;;;-4.93;91.58;100638.66;1712034;83;21311;-76
2022/01/24 04:54:25;;;;;;;30.20;16.42;;;;;;;-4.99;91.95;100636.25;1734960;82;21193;-82
2022/01/24 04:56:20;;;;;;;33.65;16.45;;;;;;;-4.97;92.30;100640.20;1710932;82;21314;-76
2022/01/24 04:59:25;;;;;;;33.20;18.92;;;;;;;-4.97;92.60;100639.73;1733488;82;21235;-83
2022/01/24 05:02:31;;;;;;;34.98;18.42;;;;;;;-4.99;92.64;100644.25;1726885;82;21291;-77
2022/01/24 05:05:37;;;;;;;27.27;13.30;;;;;;;-5.00;92.94;100633.66;1705733;84;21165;-78
2022/01/24 05:08:43;;;;;;;32.60;16.57;;;;;;;-5.02;93.24;100635.08;1718317;82;21143;-78
2022/01/24 05:25:00;;;;;;;27.67;15.50;;;;;;;-5.11;95.07;100656.84;1734483;82;21152;-85
2022/01/24 05:28:05;;;;;;;34.67;18.15;;;;;;;-5.15;95.60;100661.91;1705933;84;21306;-78
2022/01/24 05:31:04;;;;;;;30.05;15.95;;;;;;;-5.18;96.52;100658.89;1705536;84;21849;-79
2022/01/24 05:34:10;;;;;;;39.18;18.00;;;;;;;-5.19;97.36;100661.64;1705624;84;21907;-84
2022/01/24 05:37:14;;;;;;;33.53;17.52;;;;;;;-5.20;97.92;100654.11;1713344;82;21857;-85
2022/01/24 05:40:20;;;;;;;27.98;17.00;;;;;;;-5.21;98.25;100655.52;1721653;82;21276;-84
2022/01/24 05:43:25;;;;;;;37.33;17.35;;;;;;;-5.23;98.58;100654.70;1709363;82;21327;-85
2022/01/24 05:46:30;;;;;;;27.60;16.05;;;;;;;-5.23;98.75;100669.37;1718572;82;21228;-84
2022/01/24 05:49:35;;;;;;;33.02;17.45;;;;;;;-5.18;99.05;100666.03;1717131;82;21307;-79
2022/01/24 05:52:40;;;;;;;30.70;18.10;;;;;;;-5.14;99.07;100675.16;1714523;83;21338;-85
2022/01/24 05:55:45;;;;;;;29.70;15.53;;;;;;;-5.12;98.97;100677.78;1724100;83;21304;-78
2022/01/24 05:58:50;;;;;;;27.90;16.00;;;;;;;-5.11;98.87;100675.98;1707797;83;21252;-84
2022/01/24 06:01:54;;;;;;;34.05;16.67;;;;;;;-5.08;98.80;100682.48;1708459;83;21290;-84
2022/01/24 06:05:00;;;;;;;29.02;17.20;;;;;;;-5.08;98.76;100683.82;1708103;83;21252;-78
2022/01/24 06:08:05;;;;;;;30.70;17.82;;;;;;;-5.08;98.99;100680.72;1706045;83;21153;-78
2022/01/24 06:11:10;;;;;;;31.42;18.12;;;;;;;-5.09;99.18;100671.42;1708996;83;21184;-78
2022/01/24 06:14:17;;;;;;;28.52;15.95;;;;;;;-5.10;99.19;100681.70;1706620;83;21725;-86
2022/01/24 06:17:22;;;;;;;29.23;16.32;;;;;;;-5.12;99.05;100671.11;1706929;83;21275;-78
2022/01/24 06:20:27;;;;;;;33.05;16.97;;;;;;;-5.14;99.05;100671.16;1712376;83;21287;-86
2022/01/24 06:23:36;;;;;;;31.45;18.57;;;;;;;-5.12;99.13;100714.27;1707624;83;21295;-85
2022/01/24 06:26:43;;;;;;;30.57;16.27;;;;;;;-5.13;99.03;100688.03;1706921;83;21185;-85
2022/01/24 06:29:49;;;;;;;34.08;19.17;;;;;;;-5.09;99.03;100692.30;1707573;83;21299;-84
2022/01/24 06:32:53;;;;;;;27.27;15.75;;;;;;;-5.06;98.85;100687.30;1710466;83;21612;-78
2022/01/24 06:35:59;;;;;;;32.28;15.83;;;;;;;-5.07;98.60;100686.44;1709185;83;21363;-77
2022/01/24 06:39:06;;;;;;;28.40;15.48;;;;;;;-5.07;98.69;100706.92;1714227;83;21271;-83
2022/01/24 06:42:21;;;;;;;34.03;16.15;;;;;;;-5.08;98.77;100695.83;1710825;83;21192;-84
2022/01/24 06:45:21;;;;;;;22.53;14.43;;;;;;;-5.14;98.75;100685.83;1710355;83;21334;-84
2022/01/24 06:48:26;;;;;;;31.52;16.55;;;;;;;-5.15;98.92;100686.77;1707428;83;21876;-85
2022/01/24 06:51:32;;;;;;;27.20;16.75;;;;;;;-5.12;98.87;100680.92;1706471;82;21314;-85
2022/01/24 06:54:37;;;;;;;31.23;17.37;;;;;;;-5.09;98.78;100684.30;1708270;83;21295;-86
2022/01/24 06:57:43;;;;;;;25.25;14.75;;;;;;;-5.04;98.53;100694.29;1702997;83;21191;-86
2022/01/24 07:00:49;;;;;;;29.07;15.85;;;;;;;-5.03;97.92;100682.70;1706683;83;21201;-79
2022/01/24 07:03:54;;;;;;;24.02;14.10;;;;;;;-5.07;97.79;100689.11;1706881;83;21613;-79
2022/01/24 07:06:59;;;;;;;22.95;12.95;;;;;;;-5.09;97.86;100688.77;1702903;83;21192;-79
2022/01/24 07:10:08;;;;;;;26.25;14.40;;;;;;;-5.12;98.05;100693.79;1704026;83;21530;-78
2022/01/24 07:13:16;;;;;;;24.07;14.28;;;;;;;-5.15;97.99;100700.58;1704200;83;21251;-78
2022/01/24 07:16:24;;;;;;;25.20;14.58;;;;;;;-5.14;98.07;100698.30;1703750;83;21228;-84
2022/01/24 07:19:37;;;;;;;31.02;14.63;;;;;;;-5.14;97.58;100706.30;1706501;83;21310;-83
2022/01/24 07:22:44;;;;;;;22.82;13.93;;;;;;;-5.15;96.94;100687.23;1707553;83;21212;-85
2022/01/24 07:25:51;;;;;;;28.00;15.10;;;;;;;-5.11;96.66;100700.84;1705416;83;21314;-84
2022/01/24 07:28:56;;;;;;;23.05;14.13;;;;;;;-5.04;96.79;100704.09;1707783;83;21272;-85
2022/01/24 07:32:02;;;;;;;26.82;12.93;;;;;;;-5.00;96.15;100702.56;1706568;83;21392;-84
2022/01/24 07:35:07;;;;;;;22.82;12.70;;;;;;;-4.97;95.48;100703.77;1706357;83;21290;-77
2022/01/24 07:38:12;;;;;;;25.88;14.15;;;;;;;-5.00;95.24;100702.56;1705071;83;21303;-77
2022/01/24 07:41:25;;;;;;;21.23;11.85;;;;;;;-4.95;95.11;100705.02;1703867;83;21765;-77
2022/01/24 07:44:27;;;;;;;23.05;11.88;;;;;;;-4.91;94.24;100707.48;1704871;83;21213;-78
2022/01/24 07:47:33;;;;;;;19.17;11.75;;;;;;;-4.87;93.74;100714.03;1708136;83;21427;-78
2022/01/24 07:50:41;;;;;;;22.50;12.55;;;;;;;-4.89;93.15;100711.45;1705619;83;21839;-79
2022/01/24 07:53:46;;;;;;;22.98;13.03;;;;;;;-4.89;93.31;100706.97;1695028;83;21864;-80
2022/01/24 07:56:53;;;;;;;24.15;14.73;;;;;;;-4.85;93.67;100704.14;1699485;83;21301;-79
2022/01/24 08:00:00;;;;;;;27.40;15.23;;;;;;;-4.79;93.92;100726.58;1700615;83;21161;-78
2022/01/24 08:03:07;;;;;;;23.47;12.33;;;;;;;-4.74;93.87;100695.20;1702834;83;21703;-80
2022/01/24 08:06:19;;;;;;;25.40;13.58;;;;;;;-4.70;94.18;100702.14;1702173;83;21285;-78
2022/01/24 08:09:22;;;;;;;27.25;14.05;;;;;;;-4.64;95.50;100707.19;1698766;83;21453;-79
2022/01/24 08:12:34;;;;;;;23.02;12.10;;;;;;;-4.62;95.82;100706.63;1701471;83;21153;-87
2022/01/24 08:15:39;;;;;;;27.98;14.70;;;;;;;-4.60;96.79;100730.14;1700924;83;21216;-85
2022/01/24 08:18:45;;;;;;;26.25;14.30;;;;;;;-4.54;100.00;100715.16;1705072;83;21794;-85
2022/01/24 08:21:51;;;;;;;21.48;13.58;;;;;;;-4.43;100.00;100709.31;1705214;83;21880;-85
2022/01/24 08:25:05;;;;;;;22.95;13.30;;;;;;;-4.29;100.00;100705.53;1699119;83;21279;-80
2022/01/24 08:28:09;;;;;;;20.35;11.97;;;;;;;-4.14;100.00;100718.19;1699708;83;21307;-86
2022/01/24 08:31:16;;;;;;;22.95;11.90;;;;;;;-4.06;100.00;100734.30;1702498;83;21236;-85
2022/01/24 08:34:23;;;;;;;24.07;12.90;;;;;;;-3.97;100.00;100720.02;1702298;83;21299;-85
2022/01/24 08:37:30;;;;;;;16.90;10.82;;;;;;;-3.84;100.00;100744.84;1700920;83;21563;-85
2022/01/24 08:40:37;;;;;;;17.45;11.05;;;;;;;-3.72;100.00;100718.82;1704942;83;21374;-83
2022/01/24 08:44:00;;;;;;;16.55;10.48;;;;;;;-3.60;99.22;100711.55;1692043;83;21323;-85
2022/01/24 08:47:04;;;;;;;23.57;11.97;;;;;;;-3.57;97.61;100715.41;1708569;83;21334;-86
2022/01/24 08:50:24;;;;;;;;;;;;;;;;;;;;;
2022/01/24 08:53:30;;;;;;;18.40;10.72;;;;;;;-3.54;96.33;100712.56;1704399;83;21905;-86
2022/01/24 08:56:33;;;;;;;19.92;9.13;;;;;;;-3.56;95.37;100705.10;1706165;83;21312;-91
2022/01/24 08:59:40;;;;;;;15.93;9.68;;;;;;;-3.56;94.37;100702.42;1709674;83;21307;-88
2022/01/24 09:02:47;;;;;;;17.17;11.12;;;;;;;-3.61;93.18;100713.83;1686879;83;21530;-86
2022/01/24 09:05:53;;;;;;;15.55;9.73;;;;;;;-3.61;92.79;100734.74;1705748;83;21845;-87
2022/01/24 09:09:04;;;;;;;18.27;10.13;;;;;;;-3.63;92.71;100729.06;1702700;83;21428;-86
2022/01/24 09:12:11;;;;;;;18.98;11.43;;;;;;;-3.68;93.44;100715.06;1706388;83;21216;-83
2022/01/24 09:15:17;;;;;;;19.55;10.95;;;;;;;-3.70;94.24;100715.62;1704734;83;21189;-84
2022/01/24 09:18:22;;;;;;;18.45;10.93;;;;;;;-3.70;95.04;100721.83;1710124;83;21718;-86
2022/01/24 09:21:28;;;;;;;18.62;10.58;;;;;;;-3.69;95.07;100716.01;1687082;83;21601;-85
2022/01/24 09:24:34;;;;;;;20.68;12.18;;;;;;;-3.68;94.37;100717.73;1706332;83;21334;-84
2022/01/24 09:27:40;;;;;;;19.17;11.25;;;;;;;-3.64;93.66;100712.63;1703776;83;21651;-84
2022/01/24 09:30:46;;;;;;;21.75;12.73;;;;;;;-3.59;92.43;100727.97;1709124;83;21341;-85
2022/01/24 09:33:51;;;;;;;18.50;12.20;;;;;;;-3.53;92.04;100719.63;1704451;83;21598;-85
2022/01/24 09:37:01;;;;;;;24.47;13.60;;;;;;;-3.52;90.65;100734.77;1702437;83;21750;-85
2022/01/24 09:40:07;;;;;;;19.07;12.33;;;;;;;-3.49;89.44;100731.05;1715194;83;21311;-85
2022/01/24 09:43:19;;;;;;;21.40;10.98;;;;;;;-3.42;88.76;100744.05;1709250;83;21321;-84
2022/01/24 09:46:23;;;;;;;21.68;12.65;;;;;;;-3.31;87.88;100737.30;1707796;83;21322;-85
2022/01/24 09:49:30;;;;;;;20.95;12.40;;;;;;;-3.24;87.00;100736.05;1707532;83;21366;-84
2022/01/24 09:52:37;;;;;;;23.35;12.63;;;;;;;-3.20;86.11;100718.42;1711812;83;21295;-84
2022/01/24 09:55:43;;;;;;;21.73;11.93;;;;;;;-3.18;85.36;100727.70;1713281;82;21322;-85
2022/01/24 09:58:49;;;;;;;18.27;11.60;;;;;;;-3.17;84.56;100730.28;1716757;82;21818;-85
2022/01/24 10:01:54;;;;;;;19.87;11.78;;;;;;;-3.20;84.67;100732.24;1710271;82;21629;-84
2022/01/24 10:05:20;;;;;;;20.60;12.65;;;;;;;-3.23;84.44;100721.72;1710505;82;21315;-78
2022/01/24 10:08:30;;;;;;;20.60;11.48;;;;;;;-3.22;84.68;100729.66;1712090;82;21236;-83
2022/01/24 10:11:35;;;;;;;20.85;11.85;;;;;;;-3.23;84.32;100728.41;1709474;81;21449;-84
2022/01/24 10:18:11;;;;;;;20.68;11.60;;;;;;;-3.21;84.51;100722.02;1711172;82;21251;-84
2022/01/24 10:21:25;;;;;;;19.32;12.13;;;;;;;-3.15;84.29;100722.20;1709962;82;21869;-84
2022/01/24 10:24:43;;;;;;;21.80;11.35;;;;;;;-3.12;83.66;100728.71;1710850;82;21440;-84
2022/01/24 10:27:49;;;;;;;;;;;;;;;-3.18;83.79;100725.02;1711788;82;21291;-79
2022/01/24 10:31:00;;;;;;;34.30;10.08;;;;;;;-3.27;83.66;100729.51;1708065;82;20466;-79
2022/01/24 10:34:28;;;;;;;16.02;10.60;;;;;;;-3.30;85.78;100723.83;1711842;82;21275;-78
2022/01/24 10:37:21;;;;;;;16.10;10.38;;;;;;;-3.26;85.24;100717.38;1709894;82;21420;-78
2022/01/24 10:41:08;;;;;;;20.55;11.35;;;;;;;-3.22;84.70;100731.47;1681301;82;21843;-78
2022/01/24 10:44:01;;;;;;;17.67;10.58;;;;;;;-3.15;84.61;100724.87;1709896;82;21197;-83
2022/01/24 10:47:31;;;;;;;18.55;10.53;;;;;;;-3.12;83.74;100721.55;1712380;82;21220;-85
2022/01/24 10:50:37;;;;;;;18.87;11.28;;;;;;;-3.11;83.55;100730.44;1710396;81;21334;-84
2022/01/24 10:53:46;;;;;;;19.62;10.75;;;;;;;-3.13;83.44;100716.28;1713646;82;21813;-82
2022/01/24 11:00:31;;;;;;;14.55;9.25;;;;;;;-3.05;82.83;100736.83;1744402;80;21287;-77
2022/01/24 11:03:36;;;;;;;14.28;9.10;;;;;;;-3.03;82.52;100722.02;1720780;81;21197;-83
2022/01/24 11:06:44;;;;;;;13.83;9.45;;;;;;;-3.01;82.28;100729.05;1714605;81;21172;-83
2022/01/24 11:09:51;;;;;;;15.18;9.45;;;;;;;-2.98;82.28;100738.23;1720133;81;21635;-84
2022/01/24 11:12:58;;;;;;;18.05;9.90;;;;;;;-3.00;81.63;100731.23;1714960;81;21268;-84
2022/01/24 11:16:02;;;;;;;16.57;10.10;;;;;;;-3.06;81.59;100735.55;1714170;81;21911;-82
2022/01/24 11:19:14;;;;;;;19.75;10.50;;;;;;;-3.06;81.84;100723.03;1712475;81;22126;-78
2022/01/24 11:22:20;;;;;;;13.13;8.38;;;;;;;-3.07;82.29;100714.62;1713214;81;21562;-77
2022/01/24 11:25:26;;;;;;;19.15;10.08;;;;;;;-3.06;81.84;100720.36;1718255;81;21267;-77
2022/01/24 11:28:33;;;;;;;15.18;9.50;;;;;;;-3.11;81.73;100717.91;1712128;81;21306;-82
2022/01/24 11:31:59;;;;;;;16.73;9.33;;;;;;;-3.19;81.71;100721.48;1718166;81;21237;-77
2022/01/24 11:35:05;;;;;;;17.15;10.00;;;;;;;-3.24;82.20;100716.84;1706575;81;22114;-81
2022/01/24 11:38:11;;;;;;;20.70;10.45;;;;;;;-3.20;82.51;100721.10;1706144;83;21900;-76
2022/01/24 11:41:32;;;;;;;15.95;9.65;;;;;;;-3.08;82.40;100732.97;1710499;83;21172;-77
2022/01/24 11:44:29;;;;;;;18.45;11.08;;;;;;;-3.03;81.84;100720.20;1711977;81;21750;-83
2022/01/24 11:47:35;;;;;;;17.35;10.65;;;;;;;-3.05;81.70;100727.47;1708037;83;21327;-82
2022/01/24 11:50:41;;;;;;;14.65;9.25;;;;;;;-3.08;81.66;100711.55;1714669;81;21173;-78
2022/01/24 11:53:50;;;;;;;17.55;10.95;;;;;;;-3.08;81.52;100719.59;1715125;83;21335;-78
2022/01/24 11:56:56;;;;;;;23.85;10.20;;;;;;;-3.11;81.50;100728.63;1713767;81;21180;-82
2022/01/24 12:00:11;;;;;;;18.62;11.03;;;;;;;-3.12;81.72;100724.70;1712608;81;21326;-83
2022/01/24 12:03:31;;;;;;;21.60;10.35;;;;;;;-3.14;81.98;100731.95;1702560;81;21614;-83
2022/01/24 12:06:36;;;;;;;17.82;10.05;;;;;;;-3.17;82.05;100726.75;1715155;81;21892;-77
2022/01/24 12:09:43;;;;;;;19.85;10.40;;;;;;;-3.13;82.02;100737.69;1715707;81;21884;-77
2022/01/24 12:12:53;;;;;;;21.42;10.80;;;;;;;-3.16;81.54;100727.13;1710639;81;21639;-77
2022/01/24 12:15:59;;;;;;;;;;;;;;;-3.22;81.71;100732.33;1703230;81;21928;-77
2022/01/24 12:19:05;;;;;;;14.15;8.93;;;;;;;-3.24;81.80;100728.89;1709948;82;20768;-82
2022/01/24 12:22:31;;;;;;;21.68;10.30;;;;;;;-3.22;82.10;100732.81;1706834;83;21314;-82
2022/01/24 12:26:06;;;;;;;17.10;9.60;;;;;;;-3.19;81.37;100728.17;1700546;83;21189;-82
2022/01/24 12:29:23;;;;;;;13.88;8.68;;;;;;;-3.16;80.75;100724.46;1712851;83;21304;-83
2022/01/24 12:32:31;;;;;;;15.05;8.83;;;;;;;-3.20;80.43;100736.26;1642385;85;21421;-77
2022/01/24 12:35:37;;;;;;;16.60;9.45;;;;;;;-3.28;80.27;100731.80;1660892;84;21382;-81
2022/01/24 12:38:54;;;;;;;15.95;9.03;;;;;;;-3.33;80.09;100741.87;1665469;84;21291;-83
2022/01/24 12:42:06;;;;;;;18.05;9.40;;;;;;;-3.38;79.99;100754.14;1667752;84;21314;-83
2022/01/24 12:48:42;;;;;;;15.80;8.68;;;;;;;-3.39;80.06;100754.61;1666399;84;21299;-82
2022/01/24 12:51:49;;;;;;;19.62;9.68;;;;;;;-3.45;80.09;100732.16;1657612;84;21346;-82
2022/01/24 12:55:01;;;;;;;16.55;8.45;;;;;;;-3.48;80.08;100749.72;1670208;85;21382;-77
2022/01/24 12:58:07;;;;;;;15.03;8.73;;;;;;;-3.50;79.87;100742.22;1660476;84;21808;-78
2022/01/24 13:01:30;;;;;;;14.00;8.68;;;;;;;-3.55;79.81;100737.58;1653170;85;21872;-77
2022/01/24 13:04:42;;;;;;;19.15;9.68;;;;;;;-3.55;80.28;100754.09;1666396;85;21165;-77
2022/01/24 13:07:49;;;;;;;17.25;8.95;;;;;;;-3.57;79.96;100750.17;1675425;84;21204;-77
2022/01/24 13:10:54;;;;;;;14.55;8.08;;;;;;;-3.54;80.21;100754.02;1665682;84;22390;-77
2022/01/24 13:14:23;;;;;;;14.73;8.20;;;;;;;-3.58;79.96;100756.44;1657167;85;21338;-82
2022/01/24 13:24:00;;;;;;;13.30;8.78;;;;;;;-3.70;80.07;100760.59;1670952;85;21301;-77
2022/01/24 13:27:13;;;;;;;14.68;8.93;;;;;;;-3.70;79.88;100771.29;1671180;85;21886;-77
2022/01/24 13:30:25;;;;;;;14.45;8.60;;;;;;;-3.70;80.11;100775.78;1668629;84;21256;-77
2022/01/24 13:33:31;;;;;;;15.80;9.25;;;;;;;-3.70;80.48;100775.78;1663479;85;21184;-77
2022/01/24 13:36:38;;;;;;;16.40;9.45;;;;;;;-3.75;80.88;100769.31;1676417;85;21311;-77
2022/01/24 13:39:43;;;;;;;17.37;9.15;;;;;;;-3.76;80.91;100771.59;1677446;85;21217;-77
2022/01/24 13:42:47;;;;;;;19.27;10.30;;;;;;;-3.74;80.94;100770.17;1665802;85;21172;-82
2022/01/24 13:45:53;;;;;;;17.92;10.40;;;;;;;-3.73;80.90;100771.91;1661551;84;21294;-77
2022/01/24 13:49:06;;;;;;;13.95;9.03;;;;;;;-3.76;81.12;100765.39;1658348;85;21627;-77
2022/01/24 13:52:18;;;;;;;18.95;10.40;;;;;;;-3.76;81.40;100765.39;1677183;85;21148;-76
2022/01/24 13:55:25;;;;;;;20.97;10.08;;;;;;;-3.77;81.45;100772.98;1654112;85;21169;-82
2022/01/24 13:58:32;;;;;;;17.10;9.83;;;;;;;-3.76;81.81;100776.95;1665905;84;21841;-82
2022/01/24 14:01:37;;;;;;;16.45;9.48;;;;;;;-3.75;81.73;100765.78;1692484;82;21324;-77
2022/01/24 14:04:57;;;;;;;18.17;10.60;;;;;;;-3.71;81.59;100776.72;1707460;84;21379;-82
2022/01/24 14:07:59;;;;;;;17.25;10.10;;;;;;;-3.69;81.46;100776.16;1671171;84;21200;-77
2022/01/24 14:11:19;;;;;;;23.83;10.65;;;;;;;-3.70;81.17;100774.44;1670835;84;21872;-77
2022/01/24 14:14:41;;;;;;;;;;;;;;;-3.74;81.16;100779.06;1674872;85;21287;-77
2022/01/24 14:20:44;;;;;;;18.85;10.85;;;;;;;-3.89;80.88;100786.02;1663968;85;21888;-77
2022/01/24 14:23:47;;;;;;;19.98;10.28;;;;;;;-3.96;81.48;100796.58;1661859;85;21287;-78
2022/01/24 14:26:39;;;;;;;17.30;9.93;;;;;;;-4.03;82.27;100788.47;1666876;85;21326;-77
2022/01/24 14:29:44;;;;;;;15.70;9.23;;;;;;;-4.07;83.23;100793.56;1667606;85;21216;-77
2022/01/24 14:33:12;;;;;;;16.85;9.18;;;;;;;-4.13;84.44;100797.86;1677659;85;21370;-77
2022/01/24 14:36:24;;;;;;;15.32;8.63;;;;;;;-4.18;85.13;100802.55;1680324;85;21291;-77
2022/01/24 14:39:30;;;;;;;13.48;7.30;;;;;;;-4.23;84.21;100808.11;1664834;85;22089;-78
2022/01/24 14:42:45;;;;;;;15.30;8.58;;;;;;;-4.32;83.61;100799.65;1664214;86;21334;-78
2022/01/24 14:45:41;;;;;;;14.95;8.73;;;;;;;-4.42;84.54;100810.75;1670113;85;21379;-83
2022/01/24 14:49:17;;;;;;;17.07;8.88;;;;;;;-4.49;85.53;100809.27;1674811;85;21346;-78
2022/01/24 14:52:25;;;;;;;15.43;7.65;;;;;;;-4.54;86.22;100815.77;1681953;85;21338;-83
2022/01/24 14:55:29;;;;;;;16.52;8.28;;;;;;;-4.59;86.90;100807.95;1678710;85;21276;-78
2022/01/24 14:58:34;;;;;;;22.42;8.95;;;;;;;-4.60;87.46;100812.91;1681621;85;21177;-83
2022/01/24 15:01:39;;;;;;;17.25;9.70;;;;;;;-4.67;88.31;100815.42;1678056;85;21342;-78
2022/01/24 15:04:45;;;;;;;16.30;9.25;;;;;;;-4.72;89.07;100819.63;1650627;87;21290;-79
2022/01/24 15:07:51;;;;;;;15.45;8.85;;;;;;;-4.72;89.56;100828.97;1649814;87;21339;-76
2022/01/24 15:10:57;;;;;;;14.38;8.65;;;;;;;-4.74;90.26;100819.31;1650675;87;21350;-81
2022/01/24 15:14:09;;;;;;;14.98;9.38;;;;;;;-4.72;90.76;100821.44;1650636;87;21343;-78
2022/01/24 15:24:23;;;;;;;20.23;10.53;;;;;;;-4.53;91.65;100819.69;1649433;87;21233;-77
2022/01/24 15:27:06;;;;;;;19.10;11.05;;;;;;;-4.46;91.94;100829.17;1648923;87;21323;-78
2022/01/24 15:30:13;;;;;;;21.25;11.95;;;;;;;-4.44;92.15;100828.62;1649949;87;21310;-83
2022/01/24 15:33:19;;;;;;;22.70;10.58;;;;;;;-4.42;92.39;100822.77;1649907;87;21343;-78
2022/01/24 15:36:25;;;;;;;22.17;11.45;;;;;;;-4.35;92.54;100813.13;1650915;87;21353;-83
2022/01/24 15:39:30;;;;;;;17.90;9.98;;;;;;;-4.27;92.43;100817.66;1650105;87;21304;-83
2022/01/24 15:42:55;;;;;;;20.05;10.85;;;;;;;-4.25;92.05;100811.30;1650835;87;21370;-82
2022/01/24 15:46:00;;;;;;;16.42;9.20;;;;;;;-4.24;91.89;100812.16;1650046;87;21323;-81
2022/01/24 15:49:05;;;;;;;24.10;11.68;;;;;;;-4.23;91.58;100820.59;1649914;87;21339;-78
2022/01/24 15:52:10;;;;;;;21.65;10.63;;;;;;;-4.22;91.47;100814.31;1643266;87;21910;-78
2022/01/24 15:55:25;;;;;;;21.12;12.33;;;;;;;-4.22;91.27;100814.31;1643218;87;21304;-78
2022/01/24 15:58:30;;;;;;;17.65;10.75;;;;;;;-4.26;91.13;100816.72;1650984;87;21347;-82
2022/01/24 16:01:36;;;;;;;18.37;11.00;;;;;;;-4.25;91.16;100818.45;1649965;87;21876;-83
2022/01/24 16:04:41;;;;;;;19.00;11.50;;;;;;;-4.26;91.23;100818.92;1663932;85;21347;-78
2022/01/24 16:07:46;;;;;;;16.82;9.70;;;;;;;-4.26;91.42;100820.26;1664320;86;21873;-82
2022/01/24 16:10:51;;;;;;;20.15;9.73;;;;;;;-4.25;91.62;100818.45;1728603;83;21306;-81
2022/01/24 16:13:56;;;;;;;16.02;9.23;;;;;;;-4.23;91.74;100815.26;1688733;85;21285;-82